createdAt,value
2019-04-20T00:00:39.728Z,3.57
2019-04-20T00:03:05.674Z,3.47
2019-04-20T00:05:35.061Z,3.40
2019-04-20T00:08:08.878Z,3.90
2019-04-20T00:10:45.231Z,3.30
2019-04-20T00:13:19.435Z,3.67
2019-04-20T00:15:36.900Z,3.40
2019-04-20T00:18:07.714Z,3.37
2019-04-20T00:20:40.294Z,3.70
2019-04-20T00:23:36.891Z,3.40
2019-04-20T00:26:32.312Z,3.70
2019-04-20T00:29:07.201Z,3.00
2019-04-20T00:31:39.229Z,3.70
2019-04-20T00:34:02.679Z,3.37
2019-04-20T00:36:22.290Z,2.80
2019-04-20T00:38:55.084Z,3.63
2019-04-20T00:41:23.083Z,3.30
2019-04-20T00:43:53.358Z,3.27
2019-04-20T00:46:30.430Z,3.13
2019-04-20T00:49:02.786Z,3.33
2019-04-20T00:51:39.521Z,3.50
2019-04-20T00:53:57.043Z,3.10
2019-04-20T00:56:26.500Z,3.87
2019-04-20T00:59:09.256Z,3.23
2019-04-20T01:01:50.262Z,3.57
2019-04-20T01:04:14.812Z,3.40
2019-04-20T01:07:14.108Z,3.67
2019-04-20T01:10:05.013Z,3.03
2019-04-20T01:12:36.584Z,3.90
2019-04-20T01:15:09.911Z,3.63
2019-04-20T01:17:37.941Z,3.53
2019-04-20T01:20:09.213Z,3.63
2019-04-20T01:22:44.599Z,3.77
2019-04-20T01:25:17.256Z,4.10
2019-04-20T01:27:59.605Z,4.50
2019-04-20T01:30:20.764Z,3.80
2019-04-20T01:32:57.547Z,4.00
2019-04-20T01:35:31.632Z,4.17
2019-04-20T01:38:02.656Z,3.47
2019-04-20T01:40:14.860Z,4.10
2019-04-20T01:42:44.543Z,4.27
2019-04-20T01:45:21.731Z,3.80
2019-04-20T01:47:49.268Z,4.27
2019-04-20T01:50:21.031Z,3.83
2019-04-20T01:52:58.305Z,3.80
2019-04-20T01:55:38.608Z,3.73
2019-04-20T01:58:17.593Z,3.60
2019-04-20T02:00:45.211Z,3.67
2019-04-20T02:03:40.264Z,4.08
2019-04-20T02:06:09.961Z,4.07
2019-04-20T02:08:37.727Z,3.83
2019-04-20T02:11:09.133Z,3.87
2019-04-20T02:13:47.106Z,4.07
2019-04-20T02:16:19.136Z,4.00
2019-04-20T02:19:00.489Z,3.70
2019-04-20T02:21:27.613Z,3.57
2019-04-20T02:23:49.691Z,3.80
2019-04-20T02:26:14.189Z,3.43
2019-04-20T02:29:07.969Z,3.70
2019-04-20T02:31:55.151Z,3.47
2019-04-20T02:34:39.159Z,4.10
2019-04-20T02:37:13.969Z,3.80
2019-04-20T02:47:13.998Z,4.43
2019-04-20T02:54:46.454Z,4.77
2019-04-20T02:59:59.539Z,5.30
2019-04-20T03:02:05.768Z,5.00
2019-04-20T03:04:28.330Z,5.40
2019-04-20T03:07:04.162Z,5.40
2019-04-20T03:09:40.374Z,5.07
2019-04-20T03:12:29.107Z,4.13
2019-04-20T03:14:36.209Z,5.67
2019-04-20T03:17:18.258Z,5.70
2019-04-20T03:19:38.647Z,5.03
2019-04-20T03:22:16.117Z,4.87
2019-04-20T03:27:15.735Z,4.50
2019-04-20T03:30:04.163Z,5.90
2019-04-20T03:35:14.901Z,5.83
2019-04-20T03:37:45.785Z,5.63
2019-04-20T03:40:07.117Z,5.67
2019-04-20T03:42:20.216Z,4.73
2019-04-20T03:44:57.910Z,5.33
2019-04-20T03:47:31.466Z,6.03
2019-04-20T03:50:10.735Z,5.27
2019-04-20T03:52:54.241Z,5.20
2019-04-20T03:55:50.171Z,5.13
2019-04-20T03:58:37.650Z,4.97
2019-04-20T04:01:44.499Z,5.12
2019-04-20T04:04:10.635Z,6.27
2019-04-20T04:06:26.492Z,6.47
2019-04-20T04:09:02.389Z,6.50
2019-04-20T04:11:35.040Z,5.73
2019-04-20T04:13:50.400Z,5.27
2019-04-20T04:16:22.029Z,5.70
2019-04-20T04:19:01.401Z,7.80
2019-04-20T04:21:38.284Z,7.30
2019-04-20T04:24:07.400Z,6.67
2019-04-20T04:26:39.505Z,6.03
2019-04-20T04:29:18.055Z,6.03
2019-04-20T04:31:50.807Z,5.73
2019-04-20T04:34:12.463Z,6.20
2019-04-20T04:36:44.218Z,7.87
2019-04-20T04:39:15.417Z,5.37
2019-04-20T04:41:51.227Z,5.50
2019-04-20T04:44:11.033Z,5.87
2019-04-20T04:46:27.150Z,4.80
2019-04-20T04:49:05.343Z,5.57
2019-04-20T04:51:38.563Z,5.27
2019-04-20T04:54:03.698Z,4.53
2019-04-20T04:56:29.092Z,4.70
2019-04-20T04:59:00.195Z,5.03
2019-04-20T05:01:38.605Z,4.20
2019-04-20T05:04:25.190Z,4.40
2019-04-20T05:06:54.744Z,5.50
2019-04-20T05:09:16.812Z,5.12
2019-04-20T05:11:44.891Z,5.13
2019-04-20T05:14:23.562Z,5.50
2019-04-20T05:17:01.867Z,5.57
2019-04-20T05:19:41.262Z,5.30
2019-04-20T05:22:19.377Z,5.73
2019-04-20T05:25:10.857Z,5.10
2019-04-20T05:27:50.885Z,5.45
2019-04-20T05:30:05.698Z,5.73
2019-04-20T05:32:44.859Z,5.47
2019-04-20T05:35:26.790Z,5.50
2019-04-20T05:38:18.807Z,6.50
2019-04-20T05:40:27.515Z,5.87
2019-04-20T05:43:09.195Z,6.00
2019-04-20T05:45:28.422Z,6.00
2019-04-20T05:48:04.570Z,5.47
2019-04-20T05:50:40.212Z,5.43
2019-04-20T05:53:07.762Z,5.87
2019-04-20T05:55:40.176Z,5.63
2019-04-20T05:58:13.860Z,5.40
2019-04-20T06:00:48.382Z,5.10
2019-04-20T06:03:11.027Z,5.23
2019-04-20T06:05:55.192Z,5.80
2019-04-20T06:08:23.518Z,5.10
2019-04-20T06:10:45.580Z,5.33
2019-04-20T06:13:17.521Z,5.60
2019-04-20T06:16:03.865Z,5.57
2019-04-20T06:18:36.366Z,5.50
2019-04-20T06:21:21.308Z,5.80
2019-04-20T06:23:50.882Z,5.37
2019-04-20T06:28:46.676Z,5.33
2019-04-20T06:31:26.594Z,5.90
2019-04-20T06:34:25.918Z,5.50
2019-04-20T06:36:56.066Z,6.13
2019-04-20T06:39:37.955Z,5.47
2019-04-20T06:44:22.833Z,5.77
2019-04-20T06:46:59.123Z,5.30
2019-04-20T06:52:23.665Z,5.27
2019-04-20T06:54:58.185Z,5.47
2019-04-20T06:57:37.228Z,5.40
2019-04-20T07:00:10.207Z,5.47
2019-04-20T07:02:37.267Z,5.13
2019-04-20T07:05:05.384Z,5.70
2019-04-20T07:07:41.961Z,5.80
2019-04-20T07:10:13.363Z,5.50
2019-04-20T07:12:33.047Z,5.87
2019-04-20T07:14:55.515Z,5.70
2019-04-20T07:20:46.122Z,5.87
2019-04-20T07:23:18.959Z,5.43
2019-04-20T07:25:43.238Z,5.53
2019-04-20T07:28:12.518Z,4.57
2019-04-20T07:30:41.503Z,5.10
2019-04-20T07:33:18.714Z,4.03
2019-04-20T07:35:40.166Z,4.70
2019-04-20T07:38:23.402Z,4.50
2019-04-20T07:40:38.334Z,4.47
2019-04-20T07:43:07.908Z,4.07
2019-04-20T07:45:37.626Z,4.30
2019-04-20T07:48:16.726Z,4.60
2019-04-20T07:50:37.465Z,4.43
2019-04-20T07:53:12.315Z,4.07
2019-04-20T07:55:52.328Z,4.07
2019-04-20T07:58:09.931Z,4.40
2019-04-20T08:01:02.563Z,4.10
2019-04-20T08:04:06.385Z,4.13
2019-04-20T08:06:18.086Z,4.10
2019-04-20T08:08:57.325Z,4.17
2019-04-20T08:11:26.729Z,4.37
2019-04-20T08:14:05.896Z,4.30
2019-04-20T08:17:06.674Z,4.33
2019-04-20T08:19:16.344Z,4.40
2019-04-20T08:21:37.369Z,4.20
2019-04-20T08:24:02.597Z,4.70
2019-04-20T08:26:23.308Z,4.00
2019-04-20T08:29:00.356Z,4.53
2019-04-20T08:31:56.224Z,4.33
2019-04-20T08:34:35.148Z,4.57
2019-04-20T08:37:01.058Z,4.20
2019-04-20T08:39:47.648Z,4.07
2019-04-20T08:42:06.267Z,4.50
2019-04-20T08:44:56.977Z,4.27
2019-04-20T08:47:18.256Z,4.57
2019-04-20T08:49:41.327Z,4.30
2019-04-20T08:52:31.952Z,4.17
2019-04-20T08:54:34.415Z,4.10
2019-04-20T08:56:55.322Z,4.20
2019-04-20T08:59:21.083Z,4.20
2019-04-20T09:01:51.070Z,4.73
2019-04-20T09:04:32.500Z,4.70
2019-04-20T09:07:04.482Z,4.80
2019-04-20T09:12:09.094Z,4.80
2019-04-20T09:14:25.319Z,4.50
2019-04-20T09:17:07.279Z,7.63
2019-04-20T09:19:44.574Z,5.20
2019-04-20T09:22:34.163Z,4.83
2019-04-20T09:25:19.268Z,5.23
2019-04-20T09:27:31.437Z,5.27
2019-04-20T09:30:16.009Z,5.23
2019-04-20T09:32:39.600Z,5.13
2019-04-20T09:35:20.222Z,5.33
2019-04-20T09:37:47.357Z,5.10
2019-04-20T09:40:40.496Z,5.03
2019-04-20T09:43:00.247Z,5.80
2019-04-20T09:45:40.107Z,5.23
2019-04-20T09:48:11.521Z,5.37
2019-04-20T09:50:53.128Z,4.97
2019-04-20T09:53:22.132Z,5.27
2019-04-20T09:55:57.660Z,4.90
2019-04-20T09:58:18.033Z,4.63
2019-04-20T10:01:00.832Z,5.00
2019-04-20T10:03:14.033Z,5.27
2019-04-20T10:05:43.430Z,5.10
2019-04-20T10:08:13.677Z,5.40
2019-04-20T10:10:45.597Z,4.67
2019-04-20T10:13:13.429Z,5.23
2019-04-20T10:15:43.635Z,4.90
2019-04-20T10:18:12.598Z,5.07
2019-04-20T10:20:43.404Z,5.10
2019-04-20T10:23:12.517Z,4.83
2019-04-20T10:25:42.605Z,5.27
2019-04-20T10:28:11.840Z,5.50
2019-04-20T10:30:40.984Z,5.00
2019-04-20T10:33:10.074Z,4.93
2019-04-20T10:35:39.421Z,5.20
2019-04-20T10:38:13.782Z,5.03
2019-04-20T10:40:53.018Z,5.10
2019-04-20T10:43:14.213Z,5.30
2019-04-20T10:45:44.719Z,5.17
2019-04-20T10:48:15.134Z,4.90
2019-04-20T10:50:45.110Z,5.13
2019-04-20T10:53:15.130Z,4.70
2019-04-20T10:55:45.234Z,5.13
2019-04-20T10:58:15.598Z,4.57
2019-04-20T11:00:46.404Z,4.67
2019-04-20T11:03:17.642Z,5.10
2019-04-20T11:05:47.050Z,4.40
2019-04-20T11:08:16.839Z,4.23
2019-04-20T11:10:55.149Z,4.83
2019-04-20T11:13:17.222Z,4.43
2019-04-20T11:15:46.426Z,5.40
2019-04-20T11:18:15.623Z,4.00
2019-04-20T11:20:45.600Z,4.60
2019-04-20T11:23:15.840Z,5.27
2019-04-20T11:25:46.306Z,4.17
2019-04-20T11:28:16.619Z,4.07
2019-04-20T11:30:46.054Z,4.10
2019-04-20T11:33:16.122Z,4.17
2019-04-20T11:35:46.600Z,4.13
2019-04-20T11:38:17.335Z,3.90
2019-04-20T11:40:48.177Z,5.40
2019-04-20T11:43:17.841Z,4.23
2019-04-20T11:45:46.801Z,4.27
2019-04-20T11:48:15.896Z,4.40
2019-04-20T11:50:45.446Z,4.50
2019-04-20T11:53:15.328Z,4.67
2019-04-20T11:55:44.651Z,4.25
2019-04-20T11:58:14.212Z,4.80
2019-04-20T12:00:56.244Z,4.70
2019-04-20T12:03:28.246Z,4.93
2019-04-20T12:05:53.743Z,4.30
2019-04-20T12:08:22.850Z,4.97
2019-04-20T12:10:57.559Z,4.53
2019-04-20T12:13:22.726Z,5.17
2019-04-20T12:15:51.924Z,4.87
2019-04-20T12:18:20.851Z,4.67
2019-04-20T12:20:50.471Z,5.13
2019-04-20T12:23:20.243Z,5.00
2019-04-20T12:25:50.213Z,4.97
2019-04-20T12:28:19.866Z,5.57
2019-04-20T12:30:49.029Z,5.07
2019-04-20T12:33:18.023Z,5.07
2019-04-20T12:35:48.042Z,4.83
2019-04-20T12:38:17.245Z,4.83
2019-04-20T12:40:46.254Z,4.83
2019-04-20T12:43:15.263Z,4.63
2019-04-20T12:45:44.282Z,5.10
2019-04-20T12:48:13.559Z,5.00
2019-04-20T12:50:43.729Z,5.90
2019-04-20T12:53:12.917Z,5.27
2019-04-20T12:55:41.872Z,5.27
2019-04-20T12:58:10.828Z,4.87
2019-04-20T13:00:45.911Z,4.27
2019-04-20T13:03:15.278Z,5.23
2019-04-20T13:05:45.851Z,5.17
2019-04-20T13:08:23.273Z,5.17
2019-04-20T13:10:54.779Z,5.13
2019-04-20T13:13:46.208Z,4.30
2019-04-20T13:16:20.942Z,4.23
2019-04-20T13:18:59.377Z,4.77
2019-04-20T13:21:29.207Z,5.03
2019-04-20T13:23:58.688Z,4.93
2019-04-20T13:26:28.960Z,5.47
2019-04-20T13:28:59.157Z,4.63
2019-04-20T13:31:29.558Z,4.43
2019-04-20T13:33:59.169Z,5.67
2019-04-20T13:36:28.590Z,5.83
2019-04-20T13:38:59.371Z,5.53
2019-04-20T13:41:29.765Z,5.65
2019-04-20T13:44:01.246Z,5.95
2019-04-20T13:46:31.132Z,6.15
2019-04-20T13:49:00.771Z,6.22
2019-04-20T13:51:30.844Z,6.08
2019-04-20T13:54:01.475Z,6.58
2019-04-20T13:56:31.893Z,6.87
2019-04-20T13:59:05.834Z,5.95
2019-04-20T14:01:52.868Z,6.30
2019-04-20T14:04:46.780Z,6.50
2019-04-20T14:07:17.113Z,6.22
2019-04-20T14:09:47.788Z,5.60
2019-04-20T14:12:25.278Z,6.33
2019-04-20T14:14:48.865Z,5.87
2019-04-20T14:17:19.098Z,5.77
2019-04-20T14:19:49.405Z,5.80
2019-04-20T14:22:20.539Z,5.47
2019-04-20T14:24:51.013Z,5.35
2019-04-20T14:27:21.277Z,5.80
2019-04-20T14:29:50.885Z,5.55
2019-04-20T14:32:20.991Z,5.50
2019-04-20T14:34:51.171Z,5.10
2019-04-20T14:37:20.684Z,5.25
2019-04-20T14:39:50.264Z,5.20
2019-04-20T14:42:30.597Z,5.05
2019-04-20T14:44:50.149Z,5.00
2019-04-20T14:47:19.337Z,5.22
2019-04-20T14:49:48.669Z,5.25
2019-04-20T14:52:37.647Z,5.42
2019-04-20T14:55:07.850Z,5.60
2019-04-20T14:57:37.420Z,5.12
2019-04-20T15:00:19.414Z,5.28
2019-04-20T15:02:48.519Z,5.25
2019-04-20T15:05:17.474Z,5.20
2019-04-20T15:07:46.762Z,5.58
2019-04-20T15:10:16.227Z,5.72
2019-04-20T15:12:52.540Z,5.58
2019-04-20T15:15:16.703Z,6.47
2019-04-20T15:17:49.668Z,5.90
2019-04-20T15:20:29.726Z,6.30
2019-04-20T15:23:01.361Z,5.40
2019-04-20T15:25:31.597Z,6.08
2019-04-20T15:28:00.665Z,6.05
2019-04-20T15:30:29.929Z,5.33
2019-04-20T15:32:59.108Z,5.22
2019-04-20T15:35:28.256Z,5.42
2019-04-20T15:37:57.399Z,5.22
2019-04-20T15:40:26.980Z,5.47
2019-04-20T15:43:05.970Z,5.58
2019-04-20T15:45:27.367Z,5.50
2019-04-20T15:47:56.444Z,4.90
2019-04-20T15:50:25.706Z,5.12
2019-04-20T15:52:57.366Z,5.07
2019-04-20T15:55:31.012Z,5.35
2019-04-20T15:57:57.667Z,4.95
2019-04-20T16:00:26.861Z,4.55
2019-04-20T16:03:15.047Z,5.05
2019-04-20T16:05:58.976Z,5.03
2019-04-20T16:08:34.390Z,4.40
2019-04-20T16:11:04.938Z,4.92
2019-04-20T16:13:39.688Z,4.78
2019-04-20T16:16:05.995Z,5.67
2019-04-20T16:18:35.033Z,5.17
2019-04-20T16:21:10.195Z,5.45
2019-04-20T16:23:42.971Z,5.12
2019-04-20T16:26:31.620Z,5.40
2019-04-20T16:29:01.851Z,5.50
2019-04-20T16:31:31.060Z,5.20
2019-04-20T16:34:01.062Z,5.08
2019-04-20T16:36:30.548Z,5.00
2019-04-20T16:38:59.573Z,5.05
2019-04-20T16:41:28.642Z,4.70
2019-04-20T16:43:57.687Z,5.10
2019-04-20T16:46:28.017Z,5.35
2019-04-20T16:48:57.114Z,5.35
2019-04-20T16:51:26.986Z,5.05
2019-04-20T16:53:56.290Z,4.45
2019-04-20T16:56:26.532Z,4.95
2019-04-20T16:59:02.009Z,4.53
2019-04-20T17:01:27.536Z,5.10
2019-04-20T17:04:06.532Z,4.85
2019-04-20T17:06:29.699Z,5.00
2019-04-20T17:08:58.841Z,5.10
2019-04-20T17:11:27.781Z,5.10
2019-04-20T17:13:59.696Z,5.35
2019-04-20T17:16:27.963Z,5.65
2019-04-20T17:18:57.346Z,4.33
2019-04-20T17:21:28.987Z,4.97
2019-04-20T17:23:57.569Z,4.75
2019-04-20T17:26:34.809Z,4.67
2019-04-20T17:29:18.098Z,4.50
2019-04-20T17:32:15.789Z,4.83
2019-04-20T17:35:00.219Z,4.40
2019-04-20T17:37:15.555Z,4.97
2019-04-20T17:40:06.436Z,4.70
2019-04-20T17:42:30.802Z,4.77
2019-04-20T17:44:56.445Z,4.80
2019-04-20T17:47:37.335Z,4.30
2019-04-20T17:50:05.236Z,4.57
2019-04-20T17:52:41.502Z,4.30
2019-04-20T17:54:55.871Z,4.53
2019-04-20T17:57:25.453Z,4.63
2019-04-20T18:00:02.130Z,3.83
2019-04-20T18:02:58.991Z,3.83
2019-04-20T18:05:39.372Z,3.70
2019-04-20T18:08:13.525Z,3.97
2019-04-20T18:10:36.749Z,3.60
2019-04-20T18:12:54.002Z,3.70
2019-04-20T18:15:36.314Z,3.70
2019-04-20T18:18:35.309Z,3.63
2019-04-20T18:21:16.908Z,3.80
2019-04-20T18:23:49.570Z,3.93
2019-04-20T18:26:39.331Z,4.13
2019-04-20T18:29:22.653Z,4.47
2019-04-20T18:31:37.513Z,3.77
2019-04-20T18:34:16.051Z,4.93
2019-04-20T18:36:45.474Z,4.17
2019-04-20T18:39:16.251Z,4.80
2019-04-20T18:41:48.667Z,4.90
2019-04-20T18:44:14.908Z,4.80
2019-04-20T18:47:06.650Z,4.77
2019-04-20T18:49:33.888Z,4.77
2019-04-20T18:51:46.133Z,5.00
2019-04-20T18:54:22.130Z,5.17
2019-04-20T18:56:50.814Z,4.77
2019-04-20T18:59:19.030Z,5.50
2019-04-20T19:01:48.797Z,4.63
2019-04-20T19:04:19.703Z,4.47
2019-04-20T19:06:50.067Z,4.70
2019-04-20T19:09:24.961Z,4.53
2019-04-20T19:11:56.807Z,4.73
2019-04-20T19:14:35.638Z,4.53
2019-04-20T19:17:16.999Z,4.80
2019-04-20T19:19:52.879Z,5.00
2019-04-20T19:22:19.564Z,4.73
2019-04-20T19:24:49.756Z,4.40
2019-04-20T19:27:19.860Z,4.60
2019-04-20T19:29:57.148Z,4.27
2019-04-20T19:32:38.175Z,3.77
2019-04-20T19:35:01.307Z,4.40
2019-04-20T19:37:28.641Z,4.67
2019-04-20T19:40:04.452Z,3.70
2019-04-20T19:42:34.636Z,4.10
2019-04-20T19:45:08.825Z,3.80
2019-04-20T19:47:46.837Z,3.93
2019-04-20T19:50:28.287Z,4.00
2019-04-20T19:52:51.642Z,3.70
2019-04-20T19:55:16.107Z,3.73
2019-04-20T19:57:45.126Z,3.87
2019-04-20T19:59:59.819Z,3.60
2019-04-20T20:02:29.846Z,3.90
2019-04-20T20:05:06.305Z,3.70
2019-04-20T20:07:37.261Z,4.17
2019-04-20T20:10:04.378Z,4.63
2019-04-20T20:12:31.514Z,4.53
2019-04-20T20:15:01.675Z,3.67
2019-04-20T20:17:48.132Z,6.47
2019-04-20T20:20:26.056Z,4.10
2019-04-20T20:22:40.682Z,8.83
2019-04-20T20:25:03.124Z,10.53
2019-04-20T20:27:42.597Z,4.27
2019-04-20T20:30:11.999Z,17.93
2019-04-20T20:32:47.036Z,11.77
2019-04-20T20:35:13.444Z,10.83
2019-04-20T20:37:42.515Z,11.35
2019-04-20T20:40:15.787Z,7.03
2019-04-20T20:42:54.026Z,4.93
2019-04-20T20:45:21.038Z,4.70
2019-04-20T20:48:01.892Z,4.60
2019-04-20T20:50:32.651Z,4.00
2019-04-20T20:53:12.487Z,4.87
2019-04-20T20:55:40.249Z,4.73
2019-04-20T20:58:10.635Z,4.77
2019-04-20T21:00:43.313Z,4.53
2019-04-20T21:03:07.826Z,4.60
2019-04-20T21:05:35.685Z,4.97
2019-04-20T21:08:05.935Z,4.47
2019-04-20T21:10:40.486Z,4.63
2019-04-20T21:13:09.148Z,4.70
2019-04-20T21:15:38.223Z,4.63
2019-04-20T21:18:29.316Z,4.40
2019-04-20T21:20:55.133Z,5.10
2019-04-20T21:23:25.986Z,5.03
2019-04-20T21:25:59.084Z,4.77
2019-04-20T21:28:28.810Z,4.93
2019-04-20T21:31:05.137Z,4.83
2019-04-20T21:33:32.237Z,5.07
2019-04-20T21:36:00.779Z,5.27
2019-04-20T21:38:35.468Z,4.70
2019-04-20T21:41:07.482Z,5.10
2019-04-20T21:43:36.336Z,5.67
2019-04-20T21:46:05.452Z,5.60
2019-04-20T21:48:49.184Z,5.90
2019-04-20T21:51:21.201Z,5.37
2019-04-20T21:53:35.900Z,6.42
2019-04-20T21:56:06.428Z,6.10
2019-04-20T21:58:46.026Z,5.73
2019-04-20T22:01:16.098Z,5.33
2019-04-20T22:03:38.378Z,5.40
2019-04-20T22:06:08.956Z,5.50
2019-04-20T22:08:39.460Z,5.97
2019-04-20T22:11:08.669Z,6.10
2019-04-20T22:13:41.625Z,6.37
2019-04-20T22:16:11.097Z,5.93
2019-04-20T22:18:48.550Z,5.23
2019-04-20T22:21:21.855Z,6.10
2019-04-20T22:23:54.908Z,5.97
2019-04-20T22:26:24.317Z,7.13
2019-04-20T22:28:42.397Z,5.93
2019-04-20T22:31:11.970Z,6.03
2019-04-20T22:33:43.604Z,6.20
2019-04-20T22:36:13.130Z,6.53
2019-04-20T22:39:07.419Z,8.13
2019-04-20T22:41:40.688Z,6.17
2019-04-20T22:44:15.436Z,6.80
2019-04-20T22:46:42.265Z,6.07
2019-04-20T22:49:29.502Z,7.30
2019-04-20T22:51:52.002Z,7.27
2019-04-20T22:54:27.609Z,6.07
2019-04-20T22:56:54.905Z,6.30
2019-04-20T22:59:19.415Z,5.57
2019-04-20T23:01:51.657Z,6.10
2019-04-20T23:04:15.162Z,6.33
2019-04-20T23:06:48.520Z,6.43
2019-04-20T23:09:16.518Z,5.30
2019-04-20T23:11:45.796Z,5.90
2019-04-20T23:14:16.251Z,6.30
2019-04-20T23:16:49.237Z,6.03
2019-04-20T23:19:28.994Z,6.05
2019-04-20T23:21:53.184Z,6.37
2019-04-20T23:24:18.444Z,6.53
2019-04-20T23:26:49.032Z,6.33
2019-04-20T23:29:21.375Z,5.37
2019-04-20T23:31:55.543Z,5.90
2019-04-20T23:34:23.639Z,5.90
2019-04-20T23:36:50.867Z,6.23
2019-04-20T23:39:23.242Z,6.60
2019-04-20T23:41:57.063Z,6.20
2019-04-20T23:44:58.206Z,6.10
2019-04-20T23:47:55.236Z,5.90
2019-04-20T23:50:38.240Z,5.87
2019-04-20T23:53:08.018Z,6.00
2019-04-20T23:55:19.194Z,5.90
2019-04-20T23:57:53.499Z,6.60
